Chadstone Weather > Observations for 12/03/21

Select Day:



Observations
Time Temp Hum DP Wind Gust Dir Rain >9am Press
C % C kph kph mm hPa
00:00 20.1 84 17.3 0.1 2.5 WNW 0.0 1002.0
00:10 20.0 84 17.2 0.5 3.6 NNW 0.0 1003.0
00:20 19.9 86 17.5 1.4 5.0 NW 0.0 1001.9
00:30 19.7 87 17.5 1.5 5.0 WNW 0.0 1002.6
00:40 19.6 87 17.4 2.1 5.0 NW 0.0 1001.9
00:50 19.6 88 17.6 0.5 5.0 NNW 0.0 1002.4
01:00 19.5 88 17.5 0.4 3.6 NW 0.0 1001.5
01:10 19.4 88 17.4 1.0 5.0 WNW 0.0 1002.3
01:20 19.2 88 17.2 1.6 5.0 WNW 0.0 1001.5
01:30 19.2 89 17.4 1.2 5.0 W 0.0 1002.1
01:40 19.2 89 17.4 1.4 3.6 NNW 0.0 1001.3
01:50 19.1 90 17.4 1.2 3.6 NW 0.0 1001.3
02:00 19.1 90 17.4 0.9 3.6 NNW 0.0 1001.5
02:10 19.1 90 17.4 2.2 5.0 NW 0.0 1000.7
02:20 18.9 91 17.4 1.6 5.0 NW 0.0 1001.2
02:30 18.9 91 17.4 1.0 6.1 NW 0.0 1000.7
02:40 18.9 91 17.4 1.8 6.1 NW 0.0 1000.8
02:50 18.9 91 17.4 1.6 6.1 NW 0.0 1001.0
03:00 18.9 91 17.4 1.0 5.0 NNW 0.0 1000.3
03:10 18.9 91 17.4 0.9 5.0 N 0.0 1000.4
03:20 18.7 90 17.0 1.7 5.0 NW 0.0 1000.5
03:30 18.6 90 16.9 0.8 3.6 N 0.0 999.9
03:40 18.5 90 16.8 1.3 5.0 N 0.0 1000.3
03:50 18.3 90 16.6 0.1 2.5 N 0.0 1000.2
04:00 18.1 90 16.4 0.0 0.0 N 0.0 999.7
04:10 17.9 89 16.1 0.0 1.1 NE 0.0 999.9
04:20 17.8 90 16.1 0.0 0.0 N 0.0 999.9
04:30 17.5 90 15.9 0.0 0.0 N 0.0 999.3
04:40 17.4 90 15.8 0.0 0.0 N 0.0 999.5
04:50 17.3 90 15.7 0.0 0.0 N 0.0 999.1
05:00 17.1 91 15.6 0.1 2.5 SW 0.0 999.0
05:10 17.0 91 15.5 0.0 1.1 SW 0.0 999.1
05:20 16.9 92 15.6 0.0 1.1 SW 0.0 999.2
05:30 16.8 92 15.5 0.0 0.0 N 0.0 999.3
05:40 16.7 92 15.4 0.0 0.0 N 0.0 999.5
05:50 16.7 92 15.4 0.0 0.0 N 0.0 999.4
06:00 16.6 92 15.3 0.0 1.1 SW 0.0 999.4
06:10 16.5 93 15.4 0.0 0.0 N 0.0 999.6
06:20 16.5 93 15.4 0.0 0.0 N 0.0 999.6
06:30 16.4 93 15.3 0.0 0.0 N 0.0 999.6
06:40 16.5 93 15.4 0.0 1.1 SW 0.0 999.7
06:50 16.5 93 15.4 0.0 2.5 SW 0.0 999.7
07:00 16.6 94 15.6 0.1 2.5 S 0.0 999.7
07:10 16.7 94 15.7 0.0 2.5 S 0.0 999.9
07:20 16.6 94 15.6 0.1 2.5 SW 0.0 1000.1
07:30 16.5 94 15.5 0.2 2.5 SW 0.0 1000.2
07:40 16.5 94 15.5 0.0 2.5 SW 0.0 1000.3
07:50 16.6 94 15.6 0.0 0.0 N 0.0 1000.3
08:00 16.6 94 15.6 0.0 2.5 S 0.0 1000.3
08:10 16.8 95 16.0 0.3 2.5 S 0.0 1000.3
08:20 17.2 94 16.2 0.0 0.0 N 0.0 1000.3
08:30 17.5 94 16.5 1.0 3.6 S 0.0 1000.3
08:40 17.8 95 17.0 2.0 3.6 N 0.0 1000.2
08:50 18.1 96 17.5 2.7 6.1 NNE 0.0 1000.0
09:00 18.3 96 17.7 2.7 6.1 NNE 0.0 999.7
09:10 18.6 95 17.8 3.5 7.2 NNE 0.0 999.7
09:20 18.8 95 18.0 3.1 6.1 NNE 0.0 999.5
09:30 19.2 93 18.1 3.1 6.1 NNE 0.0 999.4
09:40 19.7 92 18.4 5.0 11.2 NNE 0.0 999.4
09:50 20.2 88 18.2 4.3 11.2 NNE 0.0 999.3
10:00 20.7 86 18.3 4.2 9.7 NNE 0.0 999.4
10:10 21.2 83 18.2 4.1 9.7 N 0.0 999.4
10:20 21.6 81 18.2 3.6 9.7 NW 0.0 999.4
10:30 22.2 78 18.2 4.7 14.8 NNW 0.0 999.4
10:40 22.6 76 18.2 5.4 13.3 NNW 0.0 999.2
10:50 23.1 76 18.7 5.2 11.2 N 0.0 999.3
11:00 23.6 75 18.9 5.4 11.2 N 0.0 999.2
11:10 24.0 73 18.9 7.5 14.8 NW 0.0 999.1
11:20 24.5 70 18.7 6.1 14.8 NW 0.0 999.1
11:30 25.1 68 18.8 5.0 12.2 NW 0.0 999.0
11:40 25.5 65 18.5 6.9 13.3 NNE 0.0 998.8
11:50 25.7 65 18.7 7.9 17.3 NNE 0.0 998.6
12:00 26.0 63 18.4 6.7 14.8 NNE 0.0 998.4
12:10 26.3 62 18.5 4.7 13.3 NNW 0.0 998.4
12:20 26.9 62 19.0 5.8 14.8 NNW 0.0 998.2
12:30 27.1 57 17.9 6.9 14.8 NE 0.0 997.9
12:40 27.2 57 18.0 5.7 18.4 NNW 0.0 997.7
12:50 27.2 55 17.4 4.1 15.8 N 0.0 997.6
13:00 26.9 57 17.7 4.8 11.2 N 0.0 997.6
13:10 26.5 55 16.7 5.9 12.2 NNW 0.0 997.5
13:20 26.3 56 16.8 4.5 9.7 NW 0.0 998.6
13:30 27.3 53 16.9 2.3 9.7 NNW 0.0 998.9
13:40 27.7 52 17.0 2.5 7.2 NE 0.0 998.7
13:50 28.4 48 16.4 8.0 15.8 N 0.0 998.4
14:00 28.6 47 16.2 6.0 14.8 N 0.0 998.2
14:10 28.9 46 16.1 7.2 15.8 NNE 0.0 997.9
14:20 28.4 46 15.7 5.4 13.3 NNE 0.0 997.9
14:30 28.9 46 16.1 6.7 22.0 ENE 0.0 997.7
14:40 29.3 44 15.8 6.7 13.3 NNE 0.0 997.8
14:50 29.1 44 15.6 8.3 15.8 NNE 0.0 997.5
15:00 29.2 45 16.1 5.6 14.8 N 0.0 997.3
15:10 29.3 44 15.8 6.3 18.4 NNE 0.0 997.2
15:20 29.0 44 15.5 5.0 13.3 N 0.0 997.0
15:30 29.2 44 15.7 6.9 13.3 NNE 0.0 996.8
15:40 29.3 44 15.8 4.8 14.8 NE 0.0 996.7
15:50 29.9 43 16.0 5.1 9.7 N 0.0 996.6
16:00 30.2 39 14.7 5.4 15.8 W 0.0 996.5
16:10 29.7 42 15.4 5.3 12.2 WNW 0.0 996.4
16:20 29.5 43 15.6 5.8 12.2 NW 0.0 996.4
16:30 29.8 42 15.5 3.2 8.6 NW 0.0 996.2
16:40 29.8 43 15.9 4.6 12.2 NNE 0.0 996.1
16:50 30.3 40 15.2 7.5 24.5 N 0.0 996.0
17:00 30.3 39 14.8 7.6 17.3 NNW 0.0 995.9
17:10 30.0 40 15.0 5.8 12.2 NNW 0.0 995.9
17:20 29.9 41 15.2 9.1 19.4 NNE 0.0 995.9
17:30 29.8 41 15.2 5.6 14.8 NE 0.0 995.7
17:40 29.8 41 15.2 6.8 19.4 NNE 0.0 995.5
17:50 29.6 41 15.0 6.8 13.3 N 0.0 995.7
18:00 29.5 41 14.9 5.3 9.7 N 0.0 995.8
18:10 29.3 42 15.1 5.9 13.3 NNE 0.0 995.8
18:20 29.3 41 14.7 5.6 12.2 NNW 0.0 995.5
18:30 29.3 42 15.1 4.6 12.2 N 0.0 995.5
18:40 29.3 42 15.1 7.0 15.8 NNE 0.0 995.2
18:50 29.3 42 15.1 5.5 14.8 N 0.0 995.0
19:00 29.2 42 15.0 4.4 9.7 N 0.0 994.9
19:10 29.2 42 15.0 6.3 14.8 N 0.0 994.9
19:20 29.0 42 14.8 5.1 9.7 N 0.0 995.2
19:30 28.9 43 15.1 5.5 9.7 N 0.0 995.1
19:40 28.7 44 15.3 2.9 8.6 NNE 0.0 995.2
19:50 28.5 45 15.4 3.3 8.6 NNE 0.0 995.3
20:00 28.3 45 15.3 3.4 7.2 NNE 0.0 995.3
20:10 27.9 44 14.5 3.4 6.1 NE 0.0 995.5
20:20 27.7 44 14.4 4.4 8.6 NE 0.0 995.4
20:30 27.2 46 14.6 4.2 8.6 NE 0.0 995.5
20:40 27.0 47 14.7 4.4 9.7 NE 0.0 995.3
20:50 26.9 48 15.0 4.9 9.7 NE 0.0 995.5
21:00 26.7 49 15.1 4.3 8.6 NE 0.0 995.7
21:10 26.5 49 14.9 4.7 8.6 NE 0.0 995.9
21:20 26.3 50 15.1 4.6 8.6 NNE 0.0 996.1
21:30 26.2 51 15.3 3.9 7.2 NE 0.0 996.7
21:40 26.1 52 15.5 3.9 7.2 NNE 0.0 996.9
21:50 26.0 52 15.4 4.8 9.7 NNE 0.0 997.0
22:00 25.6 53 15.3 4.4 9.7 NE 0.0 997.0
22:10 25.5 53 15.2 3.9 9.7 NNE 0.0 996.9
22:20 25.4 53 15.1 3.9 9.7 NE 0.0 997.0
22:30 25.2 53 15.0 5.9 11.2 NE 0.0 996.8
22:40 25.2 53 15.0 5.4 13.3 NNE 0.0 996.6
22:50 25.1 54 15.2 6.3 12.2 N 0.0 996.5
23:00 25.0 54 15.1 5.5 12.2 NNE 0.0 996.4
23:10 24.9 55 15.3 5.1 11.2 NNW 0.0 996.6
23:20 24.7 55 15.1 4.8 13.3 NNE 0.0 996.3
23:30 24.7 55 15.1 5.2 11.2 NE 0.0 996.3
23:40 24.5 55 14.9 5.9 14.8 NNW 0.0 996.1
23:50 24.4 55 14.8 4.5 8.6 NNE 0.0 996.0